Friday, May 25, 2018, 4:55 PM GMT
Back to Local

CXDI, Delhi CS, Ont.

Location: , , Canada Lat: 42.867
Local Time: 4:55 PM GMT (16:55 GMT) Lon: -80.55
Time Zone: GMT Elev: 761 ft

Show me the last for .
Show Coded

Time T Td Feel RH Dir Speed Gust Alt SLP Vis Weather Sky Remarks
2018-05-25 16:00 81 46 - 29 240° 9 - - 29.93 0 None
2018-05-25 15:00 78 46 - 31 220° 6 - - 29.94 0 None
2018-05-25 14:00 74 46 - 36 240° 7 - - 29.96 0 None
2018-05-25 13:00 70 46 - 41 220° 5 - - 29.98 0 None
2018-05-25 12:00 63 48 - 59 230° 2 - - 29.98 0 None
2018-05-25 11:00 54 47 - 76 170° 2 - - 29.99 0 None
2018-05-25 10:00 49 46 - 89 - Calm - - 30.01 0 None
2018-05-25 09:00 51 46 - 83 - Calm - - 30.01 0 None
2018-05-25 08:00 52 45 - 77 190° 1 - - 30.02 0 None
2018-05-25 07:00 52 47 - 81 - Calm - - 30.03 0 None
2018-05-25 06:00 57 45 - 65 200° 1 - - 30.03 0 None
2018-05-25 05:00 59 46 - 61 190° 2 - - 30.04 0 None
2018-05-25 04:00 59 46 - 60 190° 2 - - 30.04 0 None
2018-05-25 03:00 62 45 - 52 200° 1 - - 30.06 0 None
2018-05-25 02:00 66 45 - 46 200° 2 - - 30.07 0 None
2018-05-25 01:00 67 44 - 43 190° 3 - - 30.07 0 None
2018-05-25 00:00 73 44 - 35 210° 3 - - 30.08 0 None
2018-05-24 23:00 73 42 - 33 210° 7 - - 30.09 0 None
2018-05-24 22:00 78 42 - 27 230° 8 17 - 30.10 0 None
2018-05-24 21:00 80 43 - 26 210° 9 - - 30.11 0 None
2018-05-24 20:00 82 47 - 29 220° 9 18 - 30.12 0 None
2018-05-24 19:00 83 45 - 26 230° 8 - - 30.13 0 None
2018-05-24 18:00 84 38 - 19 280° 8 - - 30.15 0 None
2018-05-24 17:00 82 35 - 18 290° 9 - - 30.17 0 None

Support USWX by starting your Amazon purchase here.